sensor_id;sensor_type;location;lat;lon;timestamp;temperature;humidity
59007;DHT22;44792;52.760;6.726;2023-12-20T00:00:36;7.00;99.90
59007;DHT22;44792;52.760;6.726;2023-12-20T00:03:03;7.00;99.90
59007;DHT22;44792;52.760;6.726;2023-12-20T00:05:29;7.00;99.90
59007;DHT22;44792;52.760;6.726;2023-12-20T00:07:57;7.00;99.90
59007;DHT22;44792;52.760;6.726;2023-12-20T00:10:23;7.00;99.90
59007;DHT22;44792;52.760;6.726;2023-12-20T00:12:49;7.00;99.90
59007;DHT22;44792;52.760;6.726;2023-12-20T00:15:14;7.00;99.90
59007;DHT22;44792;52.760;6.726;2023-12-20T00:17:40;7.00;99.90
59007;DHT22;44792;52.760;6.726;2023-12-20T00:20:06;7.00;99.90
59007;DHT22;44792;52.760;6.726;2023-12-20T00:22:32;7.00;99.90
59007;DHT22;44792;52.760;6.726;2023-12-20T00:24:58;7.00;99.90
59007;DHT22;44792;52.760;6.726;2023-12-20T00:27:23;7.00;99.90
59007;DHT22;44792;52.760;6.726;2023-12-20T00:29:49;7.00;99.90
59007;DHT22;44792;52.760;6.726;2023-12-20T00:32:16;7.00;99.90
59007;DHT22;44792;52.760;6.726;2023-12-20T00:34:42;7.00;99.90
59007;DHT22;44792;52.760;6.726;2023-12-20T00:37:08;7.00;99.90
59007;DHT22;44792;52.760;6.726;2023-12-20T00:39:34;7.00;99.90
59007;DHT22;44792;52.760;6.726;2023-12-20T00:41:59;6.90;99.90
59007;DHT22;44792;52.760;6.726;2023-12-20T00:44:25;6.90;99.90
59007;DHT22;44792;52.760;6.726;2023-12-20T00:46:51;7.00;99.90
59007;DHT22;44792;52.760;6.726;2023-12-20T00:49:17;6.90;99.90
59007;DHT22;44792;52.760;6.726;2023-12-20T00:51:43;6.90;99.90
59007;DHT22;44792;52.760;6.726;2023-12-20T00:54:09;6.90;99.90
59007;DHT22;44792;52.760;6.726;2023-12-20T00:56:35;6.80;99.90
59007;DHT22;44792;52.760;6.726;2023-12-20T00:59:00;6.90;99.90
59007;DHT22;44792;52.760;6.726;2023-12-20T01:01:26;6.90;99.90
59007;DHT22;44792;52.760;6.726;2023-12-20T01:03:52;6.80;99.90
59007;DHT22;44792;52.760;6.726;2023-12-20T01:06:18;6.90;99.90
59007;DHT22;44792;52.760;6.726;2023-12-20T01:08:45;6.80;99.90
59007;DHT22;44792;52.760;6.726;2023-12-20T01:11:10;6.80;99.90
59007;DHT22;44792;52.760;6.726;2023-12-20T01:13:36;6.80;99.90
59007;DHT22;44792;52.760;6.726;2023-12-20T01:16:02;6.80;99.90
59007;DHT22;44792;52.760;6.726;2023-12-20T01:18:28;6.80;99.90
59007;DHT22;44792;52.760;6.726;2023-12-20T01:20:53;6.70;99.90
59007;DHT22;44792;52.760;6.726;2023-12-20T01:23:19;6.80;99.90
59007;DHT22;44792;52.760;6.726;2023-12-20T01:25:45;6.90;99.90
59007;DHT22;44792;52.760;6.726;2023-12-20T01:28:11;6.80;99.90
59007;DHT22;44792;52.760;6.726;2023-12-20T01:30:36;6.90;99.90
59007;DHT22;44792;52.760;6.726;2023-12-20T01:33:02;6.90;99.90
59007;DHT22;44792;52.760;6.726;2023-12-20T01:35:28;6.90;99.90
59007;DHT22;44792;52.760;6.726;2023-12-20T01:37:53;6.90;99.90
59007;DHT22;44792;52.760;6.726;2023-12-20T01:40:22;6.80;99.90
59007;DHT22;44792;52.760;6.726;2023-12-20T01:43:01;6.80;99.90
59007;DHT22;44792;52.760;6.726;2023-12-20T01:45:27;6.80;99.90
59007;DHT22;44792;52.760;6.726;2023-12-20T01:47:53;6.80;99.90
59007;DHT22;44792;52.760;6.726;2023-12-20T01:50:20;6.90;99.90
59007;DHT22;44792;52.760;6.726;2023-12-20T01:52:47;6.90;99.90
59007;DHT22;44792;52.760;6.726;2023-12-20T01:55:13;6.90;99.90
59007;DHT22;44792;52.760;6.726;2023-12-20T01:57:42;6.80;99.90
59007;DHT22;44792;52.760;6.726;2023-12-20T02:00:08;6.90;99.90
59007;DHT22;44792;52.760;6.726;2023-12-20T02:02:36;6.90;99.90
59007;DHT22;44792;52.760;6.726;2023-12-20T02:05:05;6.80;99.90
59007;DHT22;44792;52.760;6.726;2023-12-20T02:07:31;6.80;99.90
59007;DHT22;44792;52.760;6.726;2023-12-20T02:09:56;6.80;99.90
59007;DHT22;44792;52.760;6.726;2023-12-20T02:12:22;6.90;99.90
59007;DHT22;44792;52.760;6.726;2023-12-20T02:14:48;6.80;99.90
59007;DHT22;44792;52.760;6.726;2023-12-20T02:17:15;6.80;99.90
59007;DHT22;44792;52.760;6.726;2023-12-20T02:19:41;6.80;99.90
59007;DHT22;44792;52.760;6.726;2023-12-20T02:22:10;6.80;99.90
59007;DHT22;44792;52.760;6.726;2023-12-20T02:24:39;6.80;99.90
59007;DHT22;44792;52.760;6.726;2023-12-20T02:27:06;6.90;99.90
59007;DHT22;44792;52.760;6.726;2023-12-20T02:29:35;6.90;99.90
59007;DHT22;44792;52.760;6.726;2023-12-20T02:32:02;6.90;99.90
59007;DHT22;44792;52.760;6.726;2023-12-20T02:34:28;6.80;99.90
59007;DHT22;44792;52.760;6.726;2023-12-20T02:36:54;6.90;99.90
59007;DHT22;44792;52.760;6.726;2023-12-20T02:39:21;6.90;99.90
59007;DHT22;44792;52.760;6.726;2023-12-20T02:41:48;7.00;99.90
59007;DHT22;44792;52.760;6.726;2023-12-20T02:44:14;6.90;99.90
59007;DHT22;44792;52.760;6.726;2023-12-20T02:46:39;6.90;99.90
59007;DHT22;44792;52.760;6.726;2023-12-20T02:49:06;6.90;99.90
59007;DHT22;44792;52.760;6.726;2023-12-20T02:51:32;6.90;99.90
59007;DHT22;44792;52.760;6.726;2023-12-20T02:53:57;6.80;99.90
59007;DHT22;44792;52.760;6.726;2023-12-20T02:56:23;6.80;99.90
59007;DHT22;44792;52.760;6.726;2023-12-20T02:58:49;6.90;99.90
59007;DHT22;44792;52.760;6.726;2023-12-20T03:01:14;6.90;99.90
59007;DHT22;44792;52.760;6.726;2023-12-20T03:03:40;6.90;99.90
59007;DHT22;44792;52.760;6.726;2023-12-20T03:06:06;6.90;99.90
59007;DHT22;44792;52.760;6.726;2023-12-20T03:08:31;6.90;99.90
59007;DHT22;44792;52.760;6.726;2023-12-20T03:10:59;6.90;99.90
59007;DHT22;44792;52.760;6.726;2023-12-20T03:13:25;6.90;99.90
59007;DHT22;44792;52.760;6.726;2023-12-20T03:15:50;6.90;99.90
59007;DHT22;44792;52.760;6.726;2023-12-20T03:18:16;6.80;99.90
59007;DHT22;44792;52.760;6.726;2023-12-20T03:20:43;6.90;99.90
59007;DHT22;44792;52.760;6.726;2023-12-20T03:23:09;6.90;99.90
59007;DHT22;44792;52.760;6.726;2023-12-20T03:25:35;6.90;99.90
59007;DHT22;44792;52.760;6.726;2023-12-20T03:28:00;6.90;99.90
59007;DHT22;44792;52.760;6.726;2023-12-20T03:30:26;6.90;99.90
59007;DHT22;44792;52.760;6.726;2023-12-20T03:32:52;7.00;99.90
59007;DHT22;44792;52.760;6.726;2023-12-20T03:35:17;7.00;99.90
59007;DHT22;44792;52.760;6.726;2023-12-20T03:37:43;7.00;99.90
59007;DHT22;44792;52.760;6.726;2023-12-20T03:40:09;6.90;99.90
59007;DHT22;44792;52.760;6.726;2023-12-20T03:42:35;6.90;99.90
59007;DHT22;44792;52.760;6.726;2023-12-20T03:45:00;6.80;99.90
59007;DHT22;44792;52.760;6.726;2023-12-20T03:47:26;6.90;99.90
59007;DHT22;44792;52.760;6.726;2023-12-20T03:49:53;6.90;99.90
59007;DHT22;44792;52.760;6.726;2023-12-20T03:52:18;6.90;99.90
59007;DHT22;44792;52.760;6.726;2023-12-20T03:54:44;6.90;99.90
59007;DHT22;44792;52.760;6.726;2023-12-20T03:57:10;6.90;99.90
59007;DHT22;44792;52.760;6.726;2023-12-20T03:59:38;6.90;99.90
59007;DHT22;44792;52.760;6.726;2023-12-20T04:02:04;6.90;99.90
59007;DHT22;44792;52.760;6.726;2023-12-20T04:04:30;6.90;99.90
59007;DHT22;44792;52.760;6.726;2023-12-20T04:06:56;6.90;99.90
59007;DHT22;44792;52.760;6.726;2023-12-20T04:09:21;6.90;99.90
59007;DHT22;44792;52.760;6.726;2023-12-20T04:11:47;6.90;99.90
59007;DHT22;44792;52.760;6.726;2023-12-20T04:14:13;6.90;99.90
59007;DHT22;44792;52.760;6.726;2023-12-20T04:16:38;7.00;99.90
59007;DHT22;44792;52.760;6.726;2023-12-20T04:19:04;7.00;99.90
59007;DHT22;44792;52.760;6.726;2023-12-20T04:21:30;7.00;99.90
59007;DHT22;44792;52.760;6.726;2023-12-20T04:23:56;6.90;99.90
59007;DHT22;44792;52.760;6.726;2023-12-20T04:26:21;7.00;99.90
59007;DHT22;44792;52.760;6.726;2023-12-20T04:28:47;7.00;99.90
59007;DHT22;44792;52.760;6.726;2023-12-20T04:31:13;7.00;99.90
59007;DHT22;44792;52.760;6.726;2023-12-20T04:33:39;7.00;99.90
59007;DHT22;44792;52.760;6.726;2023-12-20T04:36:05;7.00;99.90
59007;DHT22;44792;52.760;6.726;2023-12-20T04:38:31;7.00;99.90
59007;DHT22;44792;52.760;6.726;2023-12-20T04:40:56;7.00;99.90
59007;DHT22;44792;52.760;6.726;2023-12-20T04:43:22;7.10;99.90
59007;DHT22;44792;52.760;6.726;2023-12-20T04:45:48;7.00;99.90
59007;DHT22;44792;52.760;6.726;2023-12-20T04:48:13;7.10;99.90
59007;DHT22;44792;52.760;6.726;2023-12-20T04:50:39;7.10;99.90
59007;DHT22;44792;52.760;6.726;2023-12-20T04:53:05;7.10;99.90
59007;DHT22;44792;52.760;6.726;2023-12-20T04:55:30;7.10;99.90
59007;DHT22;44792;52.760;6.726;2023-12-20T04:57:56;7.20;99.90
59007;DHT22;44792;52.760;6.726;2023-12-20T05:00:22;7.20;99.90
59007;DHT22;44792;52.760;6.726;2023-12-20T05:02:48;7.20;99.90
59007;DHT22;44792;52.760;6.726;2023-12-20T05:05:13;7.10;99.90
59007;DHT22;44792;52.760;6.726;2023-12-20T05:07:40;7.10;99.90
59007;DHT22;44792;52.760;6.726;2023-12-20T05:10:06;7.20;99.90
59007;DHT22;44792;52.760;6.726;2023-12-20T05:12:33;7.20;99.90
59007;DHT22;44792;52.760;6.726;2023-12-20T05:14:59;7.10;99.90
59007;DHT22;44792;52.760;6.726;2023-12-20T05:17:25;7.10;99.90
59007;DHT22;44792;52.760;6.726;2023-12-20T05:19:51;7.20;99.90
59007;DHT22;44792;52.760;6.726;2023-12-20T05:22:18;7.20;99.90
59007;DHT22;44792;52.760;6.726;2023-12-20T05:24:44;7.20;99.90
59007;DHT22;44792;52.760;6.726;2023-12-20T05:27:10;7.20;99.90
59007;DHT22;44792;52.760;6.726;2023-12-20T05:29:36;7.20;99.90
59007;DHT22;44792;52.760;6.726;2023-12-20T05:32:02;7.20;99.90
59007;DHT22;44792;52.760;6.726;2023-12-20T05:34:30;7.20;99.90
59007;DHT22;44792;52.760;6.726;2023-12-20T05:36:57;7.30;99.90
59007;DHT22;44792;52.760;6.726;2023-12-20T05:39:22;7.20;99.90
59007;DHT22;44792;52.760;6.726;2023-12-20T05:41:48;7.20;99.90
59007;DHT22;44792;52.760;6.726;2023-12-20T05:44:14;7.20;99.90
59007;DHT22;44792;52.760;6.726;2023-12-20T05:46:40;7.20;99.90
59007;DHT22;44792;52.760;6.726;2023-12-20T05:49:06;7.20;99.90
59007;DHT22;44792;52.760;6.726;2023-12-20T05:51:32;7.20;99.90
59007;DHT22;44792;52.760;6.726;2023-12-20T05:53:58;7.20;99.90
59007;DHT22;44792;52.760;6.726;2023-12-20T05:56:24;7.20;99.90
59007;DHT22;44792;52.760;6.726;2023-12-20T05:58:50;7.30;99.90
59007;DHT22;44792;52.760;6.726;2023-12-20T06:01:16;7.30;99.90
59007;DHT22;44792;52.760;6.726;2023-12-20T06:03:44;7.30;99.90
59007;DHT22;44792;52.760;6.726;2023-12-20T06:06:11;7.30;99.90
59007;DHT22;44792;52.760;6.726;2023-12-20T06:08:38;7.30;99.90
59007;DHT22;44792;52.760;6.726;2023-12-20T06:11:04;7.40;99.90
59007;DHT22;44792;52.760;6.726;2023-12-20T06:13:31;7.30;99.90
59007;DHT22;44792;52.760;6.726;2023-12-20T06:15:56;7.30;99.90
59007;DHT22;44792;52.760;6.726;2023-12-20T06:18:22;7.30;99.90
59007;DHT22;44792;52.760;6.726;2023-12-20T06:20:48;7.40;99.90
59007;DHT22;44792;52.760;6.726;2023-12-20T06:23:14;7.40;99.90
59007;DHT22;44792;52.760;6.726;2023-12-20T06:25:39;7.40;99.90
59007;DHT22;44792;52.760;6.726;2023-12-20T06:28:05;7.40;99.90
59007;DHT22;44792;52.760;6.726;2023-12-20T06:30:31;7.40;99.90
59007;DHT22;44792;52.760;6.726;2023-12-20T06:32:58;7.40;99.90
59007;DHT22;44792;52.760;6.726;2023-12-20T06:35:24;7.40;99.90
59007;DHT22;44792;52.760;6.726;2023-12-20T06:37:50;7.40;99.90
59007;DHT22;44792;52.760;6.726;2023-12-20T06:40:16;7.30;99.90
59007;DHT22;44792;52.760;6.726;2023-12-20T06:42:42;7.40;99.90
59007;DHT22;44792;52.760;6.726;2023-12-20T06:45:08;7.40;99.90
59007;DHT22;44792;52.760;6.726;2023-12-20T06:47:34;7.40;99.90
59007;DHT22;44792;52.760;6.726;2023-12-20T06:50:00;7.40;99.90
59007;DHT22;44792;52.760;6.726;2023-12-20T06:52:26;7.40;99.90
59007;DHT22;44792;52.760;6.726;2023-12-20T06:54:52;7.50;99.90
59007;DHT22;44792;52.760;6.726;2023-12-20T06:57:17;7.40;99.90
59007;DHT22;44792;52.760;6.726;2023-12-20T06:59:45;7.50;99.90
59007;DHT22;44792;52.760;6.726;2023-12-20T07:02:10;7.50;99.90
59007;DHT22;44792;52.760;6.726;2023-12-20T07:04:40;7.50;99.90
59007;DHT22;44792;52.760;6.726;2023-12-20T07:07:06;7.50;99.90
59007;DHT22;44792;52.760;6.726;2023-12-20T07:09:33;7.50;99.90
59007;DHT22;44792;52.760;6.726;2023-12-20T07:11:58;7.50;99.90
59007;DHT22;44792;52.760;6.726;2023-12-20T07:14:24;7.50;99.90
59007;DHT22;44792;52.760;6.726;2023-12-20T07:16:50;7.50;99.90
59007;DHT22;44792;52.760;6.726;2023-12-20T07:19:16;7.50;99.90
59007;DHT22;44792;52.760;6.726;2023-12-20T07:21:41;7.60;99.90
59007;DHT22;44792;52.760;6.726;2023-12-20T07:24:07;7.60;99.90
59007;DHT22;44792;52.760;6.726;2023-12-20T07:26:33;7.60;99.90
59007;DHT22;44792;52.760;6.726;2023-12-20T07:28:59;7.60;99.90
59007;DHT22;44792;52.760;6.726;2023-12-20T07:31:25;7.60;99.90
59007;DHT22;44792;52.760;6.726;2023-12-20T07:33:50;7.60;99.90
59007;DHT22;44792;52.760;6.726;2023-12-20T07:36:16;7.60;99.90
59007;DHT22;44792;52.760;6.726;2023-12-20T07:38:42;7.60;99.90
59007;DHT22;44792;52.760;6.726;2023-12-20T07:41:12;7.60;99.90
59007;DHT22;44792;52.760;6.726;2023-12-20T07:43:38;7.60;99.90
59007;DHT22;44792;52.760;6.726;2023-12-20T07:46:08;7.60;99.90
59007;DHT22;44792;52.760;6.726;2023-12-20T07:48:37;7.70;99.90
59007;DHT22;44792;52.760;6.726;2023-12-20T07:51:04;7.70;99.90
59007;DHT22;44792;52.760;6.726;2023-12-20T07:53:29;7.70;99.90
59007;DHT22;44792;52.760;6.726;2023-12-20T07:55:55;7.70;99.90
59007;DHT22;44792;52.760;6.726;2023-12-20T07:58:21;7.70;99.90
59007;DHT22;44792;52.760;6.726;2023-12-20T08:00:48;7.70;99.90
59007;DHT22;44792;52.760;6.726;2023-12-20T08:03:13;7.70;99.90
59007;DHT22;44792;52.760;6.726;2023-12-20T08:05:39;7.80;99.90
59007;DHT22;44792;52.760;6.726;2023-12-20T08:08:07;7.70;99.90
59007;DHT22;44792;52.760;6.726;2023-12-20T08:10:33;7.70;99.90
59007;DHT22;44792;52.760;6.726;2023-12-20T08:12:59;7.80;99.90
59007;DHT22;44792;52.760;6.726;2023-12-20T08:15:24;7.70;99.90
59007;DHT22;44792;52.760;6.726;2023-12-20T08:17:50;7.70;99.90
59007;DHT22;44792;52.760;6.726;2023-12-20T08:20:17;7.70;99.90
59007;DHT22;44792;52.760;6.726;2023-12-20T08:22:42;7.70;99.90
59007;DHT22;44792;52.760;6.726;2023-12-20T08:25:08;7.80;99.90
59007;DHT22;44792;52.760;6.726;2023-12-20T08:27:39;7.80;99.90
59007;DHT22;44792;52.760;6.726;2023-12-20T08:30:06;7.80;99.90
59007;DHT22;44792;52.760;6.726;2023-12-20T08:32:31;7.80;99.90
59007;DHT22;44792;52.760;6.726;2023-12-20T08:34:57;7.80;99.90
59007;DHT22;44792;52.760;6.726;2023-12-20T08:37:23;7.80;99.90
59007;DHT22;44792;52.760;6.726;2023-12-20T08:39:49;7.80;99.90
59007;DHT22;44792;52.760;6.726;2023-12-20T08:42:15;7.80;99.90
59007;DHT22;44792;52.760;6.726;2023-12-20T08:44:40;7.90;99.90
59007;DHT22;44792;52.760;6.726;2023-12-20T08:47:06;7.90;99.90
59007;DHT22;44792;52.760;6.726;2023-12-20T08:49:32;7.90;99.90
59007;DHT22;44792;52.760;6.726;2023-12-20T08:51:58;7.90;99.90
59007;DHT22;44792;52.760;6.726;2023-12-20T08:54:24;7.90;99.90
59007;DHT22;44792;52.760;6.726;2023-12-20T08:56:50;7.90;99.90
59007;DHT22;44792;52.760;6.726;2023-12-20T08:59:15;7.90;99.90
59007;DHT22;44792;52.760;6.726;2023-12-20T09:01:41;8.00;99.90
59007;DHT22;44792;52.760;6.726;2023-12-20T09:04:07;7.90;99.90
59007;DHT22;44792;52.760;6.726;2023-12-20T09:06:33;7.90;99.90
59007;DHT22;44792;52.760;6.726;2023-12-20T09:08:58;8.00;99.90
59007;DHT22;44792;52.760;6.726;2023-12-20T09:11:24;8.00;99.90
59007;DHT22;44792;52.760;6.726;2023-12-20T09:13:49;8.00;99.90
59007;DHT22;44792;52.760;6.726;2023-12-20T09:16:15;8.00;99.90
59007;DHT22;44792;52.760;6.726;2023-12-20T09:18:42;8.00;99.90
59007;DHT22;44792;52.760;6.726;2023-12-20T09:21:07;8.10;99.90
59007;DHT22;44792;52.760;6.726;2023-12-20T09:23:33;8.10;99.90
59007;DHT22;44792;52.760;6.726;2023-12-20T09:25:59;8.10;99.90
59007;DHT22;44792;52.760;6.726;2023-12-20T09:28:25;8.10;99.90
59007;DHT22;44792;52.760;6.726;2023-12-20T09:30:50;8.10;99.90
59007;DHT22;44792;52.760;6.726;2023-12-20T09:33:16;8.10;99.90
59007;DHT22;44792;52.760;6.726;2023-12-20T09:35:42;8.10;99.90
59007;DHT22;44792;52.760;6.726;2023-12-20T09:38:08;8.10;99.90
59007;DHT22;44792;52.760;6.726;2023-12-20T09:40:35;8.10;99.90
59007;DHT22;44792;52.760;6.726;2023-12-20T09:43:04;8.10;99.90
59007;DHT22;44792;52.760;6.726;2023-12-20T09:45:33;8.10;99.90
59007;DHT22;44792;52.760;6.726;2023-12-20T09:48:00;8.10;99.90
59007;DHT22;44792;52.760;6.726;2023-12-20T09:50:26;8.20;99.90
59007;DHT22;44792;52.760;6.726;2023-12-20T09:52:53;8.20;99.90
59007;DHT22;44792;52.760;6.726;2023-12-20T09:55:22;8.20;99.90
59007;DHT22;44792;52.760;6.726;2023-12-20T09:57:48;8.20;99.90
59007;DHT22;44792;52.760;6.726;2023-12-20T10:00:14;8.10;99.90
59007;DHT22;44792;52.760;6.726;2023-12-20T10:03:00;8.20;99.90
59007;DHT22;44792;52.760;6.726;2023-12-20T10:05:31;8.00;99.90
59007;DHT22;44792;52.760;6.726;2023-12-20T10:07:58;7.70;99.90
59007;DHT22;44792;52.760;6.726;2023-12-20T10:10:24;7.50;99.90
59007;DHT22;44792;52.760;6.726;2023-12-20T10:15:28;7.30;99.90
59007;DHT22;44792;52.760;6.726;2023-12-20T10:17:54;7.20;99.90
59007;DHT22;44792;52.760;6.726;2023-12-20T10:20:20;7.20;99.90
59007;DHT22;44792;52.760;6.726;2023-12-20T10:22:46;7.20;99.90
59007;DHT22;44792;52.760;6.726;2023-12-20T10:25:13;7.20;99.90
59007;DHT22;44792;52.760;6.726;2023-12-20T10:27:38;7.20;99.90
59007;DHT22;44792;52.760;6.726;2023-12-20T10:30:04;7.30;99.90
59007;DHT22;44792;52.760;6.726;2023-12-20T10:32:30;7.20;99.90
59007;DHT22;44792;52.760;6.726;2023-12-20T10:34:57;7.20;99.90
59007;DHT22;44792;52.760;6.726;2023-12-20T10:37:23;7.20;99.90
59007;DHT22;44792;52.760;6.726;2023-12-20T10:39:50;7.30;99.90
59007;DHT22;44792;52.760;6.726;2023-12-20T10:42:20;7.30;99.90
59007;DHT22;44792;52.760;6.726;2023-12-20T10:44:47;7.20;99.90
59007;DHT22;44792;52.760;6.726;2023-12-20T10:47:13;7.30;99.90
59007;DHT22;44792;52.760;6.726;2023-12-20T10:49:39;7.30;99.90
59007;DHT22;44792;52.760;6.726;2023-12-20T10:52:06;7.30;99.90
59007;DHT22;44792;52.760;6.726;2023-12-20T10:54:32;7.30;99.90
59007;DHT22;44792;52.760;6.726;2023-12-20T10:57:00;7.30;99.90
59007;DHT22;44792;52.760;6.726;2023-12-20T10:59:27;7.30;99.90
59007;DHT22;44792;52.760;6.726;2023-12-20T11:01:55;7.30;99.90
59007;DHT22;44792;52.760;6.726;2023-12-20T11:04:28;7.40;99.90
59007;DHT22;44792;52.760;6.726;2023-12-20T11:09:47;7.40;99.90
59007;DHT22;44792;52.760;6.726;2023-12-20T11:15:15;7.40;99.90
59007;DHT22;44792;52.760;6.726;2023-12-20T11:17:44;7.40;99.90
59007;DHT22;44792;52.760;6.726;2023-12-20T11:20:11;7.40;99.90
59007;DHT22;44792;52.760;6.726;2023-12-20T11:22:38;7.40;99.90
59007;DHT22;44792;52.760;6.726;2023-12-20T11:25:09;7.50;99.90
59007;DHT22;44792;52.760;6.726;2023-12-20T11:27:46;7.50;99.90
59007;DHT22;44792;52.760;6.726;2023-12-20T11:30:21;7.50;99.90
59007;DHT22;44792;52.760;6.726;2023-12-20T11:32:47;7.50;99.90
59007;DHT22;44792;52.760;6.726;2023-12-20T11:37:40;7.50;99.90
59007;DHT22;44792;52.760;6.726;2023-12-20T11:40:13;7.50;99.90
59007;DHT22;44792;52.760;6.726;2023-12-20T11:42:41;7.50;99.90
59007;DHT22;44792;52.760;6.726;2023-12-20T11:45:25;7.60;99.90
59007;DHT22;44792;52.760;6.726;2023-12-20T11:47:52;7.60;99.90
59007;DHT22;44792;52.760;6.726;2023-12-20T11:50:22;7.60;99.90
59007;DHT22;44792;52.760;6.726;2023-12-20T11:52:49;7.60;99.90
59007;DHT22;44792;52.760;6.726;2023-12-20T11:55:15;7.60;99.90
59007;DHT22;44792;52.760;6.726;2023-12-20T11:57:42;7.60;99.90
59007;DHT22;44792;52.760;6.726;2023-12-20T12:00:08;7.60;99.90
59007;DHT22;44792;52.760;6.726;2023-12-20T12:02:34;7.60;99.90
59007;DHT22;44792;52.760;6.726;2023-12-20T12:05:00;7.60;99.90
59007;DHT22;44792;52.760;6.726;2023-12-20T12:07:26;7.90;99.90
59007;DHT22;44792;52.760;6.726;2023-12-20T12:09:51;7.90;99.90
59007;DHT22;44792;52.760;6.726;2023-12-20T12:12:17;7.80;99.90
59007;DHT22;44792;52.760;6.726;2023-12-20T12:14:48;7.80;99.90
59007;DHT22;44792;52.760;6.726;2023-12-20T12:17:15;7.90;99.90
59007;DHT22;44792;52.760;6.726;2023-12-20T12:19:41;7.90;99.90
59007;DHT22;44792;52.760;6.726;2023-12-20T12:22:09;7.90;99.90
59007;DHT22;44792;52.760;6.726;2023-12-20T12:24:46;8.00;99.90
59007;DHT22;44792;52.760;6.726;2023-12-20T12:27:13;8.00;99.90
59007;DHT22;44792;52.760;6.726;2023-12-20T12:29:40;8.00;99.90
59007;DHT22;44792;52.760;6.726;2023-12-20T12:32:09;8.00;99.90
59007;DHT22;44792;52.760;6.726;2023-12-20T12:34:35;8.00;99.90
59007;DHT22;44792;52.760;6.726;2023-12-20T12:37:03;8.00;99.90
59007;DHT22;44792;52.760;6.726;2023-12-20T12:39:29;7.90;99.90
59007;DHT22;44792;52.760;6.726;2023-12-20T12:41:56;7.90;99.90
59007;DHT22;44792;52.760;6.726;2023-12-20T12:44:22;7.90;99.90
59007;DHT22;44792;52.760;6.726;2023-12-20T12:46:50;7.90;99.90
59007;DHT22;44792;52.760;6.726;2023-12-20T12:49:17;7.90;99.90
59007;DHT22;44792;52.760;6.726;2023-12-20T12:51:43;8.00;99.90
59007;DHT22;44792;52.760;6.726;2023-12-20T12:54:09;7.80;99.90
59007;DHT22;44792;52.760;6.726;2023-12-20T12:56:36;7.90;99.90
59007;DHT22;44792;52.760;6.726;2023-12-20T12:59:02;7.80;99.90
59007;DHT22;44792;52.760;6.726;2023-12-20T13:01:28;7.80;99.90
59007;DHT22;44792;52.760;6.726;2023-12-20T13:03:53;7.70;99.90
59007;DHT22;44792;52.760;6.726;2023-12-20T13:06:20;7.80;99.90
59007;DHT22;44792;52.760;6.726;2023-12-20T13:08:46;7.70;99.90
59007;DHT22;44792;52.760;6.726;2023-12-20T13:11:11;7.70;99.90
59007;DHT22;44792;52.760;6.726;2023-12-20T13:13:37;7.70;99.90
59007;DHT22;44792;52.760;6.726;2023-12-20T13:16:03;7.70;99.90
59007;DHT22;44792;52.760;6.726;2023-12-20T13:18:29;7.60;99.90
59007;DHT22;44792;52.760;6.726;2023-12-20T13:20:55;7.60;99.90
59007;DHT22;44792;52.760;6.726;2023-12-20T13:23:21;7.50;99.90
59007;DHT22;44792;52.760;6.726;2023-12-20T13:25:46;7.50;99.90
59007;DHT22;44792;52.760;6.726;2023-12-20T13:28:12;7.50;99.90
59007;DHT22;44792;52.760;6.726;2023-12-20T13:30:38;7.40;99.90
59007;DHT22;44792;52.760;6.726;2023-12-20T13:33:05;7.50;99.90
59007;DHT22;44792;52.760;6.726;2023-12-20T13:35:31;7.40;99.90
59007;DHT22;44792;52.760;6.726;2023-12-20T13:38:00;7.40;99.90
59007;DHT22;44792;52.760;6.726;2023-12-20T13:40:26;7.40;99.90
59007;DHT22;44792;52.760;6.726;2023-12-20T13:42:52;7.40;99.90
59007;DHT22;44792;52.760;6.726;2023-12-20T13:45:18;7.50;99.90
59007;DHT22;44792;52.760;6.726;2023-12-20T13:47:47;7.50;99.90
59007;DHT22;44792;52.760;6.726;2023-12-20T13:50:13;7.40;99.90
59007;DHT22;44792;52.760;6.726;2023-12-20T13:52:39;7.50;99.90
59007;DHT22;44792;52.760;6.726;2023-12-20T13:55:05;7.40;99.90
59007;DHT22;44792;52.760;6.726;2023-12-20T13:57:33;7.50;99.90
59007;DHT22;44792;52.760;6.726;2023-12-20T13:59:59;7.40;99.90
59007;DHT22;44792;52.760;6.726;2023-12-20T14:02:25;7.40;99.90
59007;DHT22;44792;52.760;6.726;2023-12-20T14:04:52;7.40;99.90
59007;DHT22;44792;52.760;6.726;2023-12-20T14:07:18;7.40;99.90
59007;DHT22;44792;52.760;6.726;2023-12-20T14:09:43;7.40;99.90
59007;DHT22;44792;52.760;6.726;2023-12-20T14:12:11;7.40;99.90
59007;DHT22;44792;52.760;6.726;2023-12-20T14:14:37;7.40;99.90
59007;DHT22;44792;52.760;6.726;2023-12-20T14:17:03;7.40;99.90
59007;DHT22;44792;52.760;6.726;2023-12-20T14:19:29;7.40;99.90
59007;DHT22;44792;52.760;6.726;2023-12-20T14:21:55;7.40;99.90
59007;DHT22;44792;52.760;6.726;2023-12-20T14:24:21;7.40;99.90
59007;DHT22;44792;52.760;6.726;2023-12-20T14:26:46;7.40;99.90
59007;DHT22;44792;52.760;6.726;2023-12-20T14:29:12;7.40;99.90
59007;DHT22;44792;52.760;6.726;2023-12-20T14:31:37;7.40;99.90
59007;DHT22;44792;52.760;6.726;2023-12-20T14:34:04;7.40;99.90
59007;DHT22;44792;52.760;6.726;2023-12-20T14:36:30;7.40;99.90
59007;DHT22;44792;52.760;6.726;2023-12-20T14:38:57;7.30;99.90
59007;DHT22;44792;52.760;6.726;2023-12-20T14:41:22;7.40;99.90
59007;DHT22;44792;52.760;6.726;2023-12-20T14:43:50;7.40;99.90
59007;DHT22;44792;52.760;6.726;2023-12-20T14:46:17;7.30;99.90
59007;DHT22;44792;52.760;6.726;2023-12-20T14:48:44;7.30;99.90
59007;DHT22;44792;52.760;6.726;2023-12-20T14:51:09;7.40;99.90
59007;DHT22;44792;52.760;6.726;2023-12-20T14:53:37;7.40;99.90
59007;DHT22;44792;52.760;6.726;2023-12-20T14:56:04;7.40;99.90
59007;DHT22;44792;52.760;6.726;2023-12-20T14:58:30;7.50;99.90
59007;DHT22;44792;52.760;6.726;2023-12-20T15:00:57;7.40;99.90
59007;DHT22;44792;52.760;6.726;2023-12-20T15:03:23;7.40;99.90
59007;DHT22;44792;52.760;6.726;2023-12-20T15:05:48;7.40;99.90
59007;DHT22;44792;52.760;6.726;2023-12-20T15:08:15;7.40;99.90
59007;DHT22;44792;52.760;6.726;2023-12-20T15:10:41;7.50;99.90
59007;DHT22;44792;52.760;6.726;2023-12-20T15:13:06;7.50;99.90
59007;DHT22;44792;52.760;6.726;2023-12-20T15:15:32;7.50;99.90
59007;DHT22;44792;52.760;6.726;2023-12-20T15:17:59;7.50;99.90
59007;DHT22;44792;52.760;6.726;2023-12-20T15:20:25;7.50;99.90
59007;DHT22;44792;52.760;6.726;2023-12-20T15:22:51;7.50;99.90
59007;DHT22;44792;52.760;6.726;2023-12-20T15:25:18;7.60;99.90
59007;DHT22;44792;52.760;6.726;2023-12-20T15:27:48;7.60;99.90
59007;DHT22;44792;52.760;6.726;2023-12-20T15:30:19;7.70;99.90
59007;DHT22;44792;52.760;6.726;2023-12-20T15:32:44;7.60;99.90
59007;DHT22;44792;52.760;6.726;2023-12-20T15:35:11;7.60;99.90
59007;DHT22;44792;52.760;6.726;2023-12-20T15:37:38;7.70;99.90
59007;DHT22;44792;52.760;6.726;2023-12-20T15:40:06;7.70;99.90
59007;DHT22;44792;52.760;6.726;2023-12-20T15:42:33;7.70;99.90
59007;DHT22;44792;52.760;6.726;2023-12-20T15:45:02;7.70;99.90
59007;DHT22;44792;52.760;6.726;2023-12-20T15:47:28;7.80;99.90
59007;DHT22;44792;52.760;6.726;2023-12-20T15:49:53;7.80;99.90